Rosecrans Memorial Airport
KSTJ : now visible

Airfield :











YOU CAN JOIN US ON...

 
LOGIN :

Register | Disclaimer

   EN    FR    IT 

 









Legend :    VFR   Marginal VFR   IFR   Intensive IFR   Very Intensive IFR
Visi :
Ceiling :
>= 8 km
>= 3000ft
5 to 8 km
1000 to 3000 ft
1500m to 5 km
500 to 1000 ft
800 to 1500m
200 to 500 ft
< 800m
< 200 ft
Symbols :   Thunderstorms  Fog  Heavy snow  Heavy precipitations  Wind > 20 kt







- Airport Elevation : 826 ft


KSTJ - Rosecrans Memorial

CURRENT METAR :
  • 192153Z AUTO 29010KT 10SM BKN049 OVC060 18/08 A2989 RMK AO2 SLP118 T01830083

EXPIRED METARs :
  • 192053Z AUTO 30018G24KT 10SM SCT049 19/08 A2988 RMK AO2 SLP114 T01890083 50016
  • 191953Z AUTO 29017G24KT 10SM FEW041 OVC049 17/09 A2989 RMK AO2 PK WND 28026/1937 SLP117 T01720089

TAF KSTJ
Valid from the 19 at 18:00 until the 20 at 18:00 UTC


191737Z 1918/2018 30014G22KT P6SM BKN040
FM200200 34009KT P6SM SCT200
FM201400 07006KT P6SM SCT250
KZKC FIR / North America



MET'MAP, your aeronautical weather chart ! - Copyright ORBIFLY December 2007 - Disclaimer

ORBIFLY MET'MAP TEAM :

Programming & Development : Alexandra Zaïnal
Concept & Development : Baudouin d'Aumeries
Co-Development & Prog : Marc-Olivier Méhu
Technical & hardware support : Manuel Goepfert

Contact : metmap@orbifly.com




SOURCES & CREDITS :

   NOAA       Earth
Advisory